sensor_id;sensor_type;location;lat;lon;timestamp;P1;durP1;ratioP1;P2;durP2;ratioP2
43690;SDS011;29293;52.190;21.226;2023-07-31T00:14:11;7.20;;;5.40;;
43690;SDS011;29293;52.190;21.226;2023-07-31T00:29:18;7.70;;;4.80;;
43690;SDS011;29293;52.190;21.226;2023-07-31T00:44:33;8.60;;;4.60;;
43690;SDS011;29293;52.190;21.226;2023-07-31T00:59:40;14.50;;;5.30;;
43690;SDS011;29293;52.190;21.226;2023-07-31T01:14:53;9.60;;;4.70;;
43690;SDS011;29293;52.190;21.226;2023-07-31T01:30:09;13.60;;;3.80;;
43690;SDS011;29293;52.190;21.226;2023-07-31T01:45:20;9.00;;;4.30;;
43690;SDS011;29293;52.190;21.226;2023-07-31T02:00:27;7.50;;;3.70;;
43690;SDS011;29293;52.190;21.226;2023-07-31T02:15:35;8.40;;;3.30;;
43690;SDS011;29293;52.190;21.226;2023-07-31T02:30:43;7.10;;;3.60;;
43690;SDS011;29293;52.190;21.226;2023-07-31T02:45:52;6.60;;;3.30;;
43690;SDS011;29293;52.190;21.226;2023-07-31T03:00:59;8.20;;;3.50;;
43690;SDS011;29293;52.190;21.226;2023-07-31T03:16:06;9.00;;;3.30;;
43690;SDS011;29293;52.190;21.226;2023-07-31T03:31:12;6.80;;;3.80;;
43690;SDS011;29293;52.190;21.226;2023-07-31T03:46:19;5.20;;;3.00;;
43690;SDS011;29293;52.190;21.226;2023-07-31T04:01:26;4.50;;;3.10;;
43690;SDS011;29293;52.190;21.226;2023-07-31T04:16:33;7.80;;;3.40;;
43690;SDS011;29293;52.190;21.226;2023-07-31T04:31:39;5.50;;;3.70;;
43690;SDS011;29293;52.190;21.226;2023-07-31T04:46:46;4.80;;;2.90;;
43690;SDS011;29293;52.190;21.226;2023-07-31T05:01:53;9.00;;;3.70;;
43690;SDS011;29293;52.190;21.226;2023-07-31T05:17:00;9.00;;;3.40;;
43690;SDS011;29293;52.190;21.226;2023-07-31T05:32:07;4.40;;;3.40;;
43690;SDS011;29293;52.190;21.226;2023-07-31T05:47:14;6.80;;;3.10;;
43690;SDS011;29293;52.190;21.226;2023-07-31T06:02:21;6.50;;;3.30;;
43690;SDS011;29293;52.190;21.226;2023-07-31T06:17:28;5.60;;;3.30;;
43690;SDS011;29293;52.190;21.226;2023-07-31T06:32:35;7.50;;;3.40;;
43690;SDS011;29293;52.190;21.226;2023-07-31T06:47:42;6.40;;;3.20;;
43690;SDS011;29293;52.190;21.226;2023-07-31T07:02:49;5.60;;;3.30;;
43690;SDS011;29293;52.190;21.226;2023-07-31T07:17:56;7.40;;;3.70;;
43690;SDS011;29293;52.190;21.226;2023-07-31T07:33:02;8.50;;;3.80;;
43690;SDS011;29293;52.190;21.226;2023-07-31T07:48:09;7.00;;;3.70;;
43690;SDS011;29293;52.190;21.226;2023-07-31T08:03:16;7.70;;;3.50;;
43690;SDS011;29293;52.190;21.226;2023-07-31T08:18:23;5.40;;;3.30;;
43690;SDS011;29293;52.190;21.226;2023-07-31T08:33:30;11.30;;;3.70;;
43690;SDS011;29293;52.190;21.226;2023-07-31T08:48:37;5.90;;;3.00;;
43690;SDS011;29293;52.190;21.226;2023-07-31T09:18:54;5.00;;;2.40;;
43690;SDS011;29293;52.190;21.226;2023-07-31T09:34:02;7.20;;;2.50;;
43690;SDS011;29293;52.190;21.226;2023-07-31T09:49:13;6.20;;;2.90;;
43690;SDS011;29293;52.190;21.226;2023-07-31T10:04:20;5.10;;;2.20;;
43690;SDS011;29293;52.190;21.226;2023-07-31T10:19:42;5.80;;;2.30;;
43690;SDS011;29293;52.190;21.226;2023-07-31T10:49:46;5.60;;;2.30;;
43690;SDS011;29293;52.190;21.226;2023-07-31T11:05:08;5.60;;;2.20;;
43690;SDS011;29293;52.190;21.226;2023-07-31T11:20:15;6.30;;;2.10;;
43690;SDS011;29293;52.190;21.226;2023-07-31T11:35:22;7.00;;;1.70;;
43690;SDS011;29293;52.190;21.226;2023-07-31T11:50:29;5.30;;;1.80;;
43690;SDS011;29293;52.190;21.226;2023-07-31T14:39:33;4.50;;;2.30;;
43690;SDS011;29293;52.190;21.226;2023-07-31T14:54:40;5.50;;;2.30;;
43690;SDS011;29293;52.190;21.226;2023-07-31T15:09:48;5.20;;;1.90;;
43690;SDS011;29293;52.190;21.226;2023-07-31T15:24:55;3.80;;;1.80;;
43690;SDS011;29293;52.190;21.226;2023-07-31T15:40:02;4.70;;;1.80;;
43690;SDS011;29293;52.190;21.226;2023-07-31T15:55:11;7.50;;;1.90;;
43690;SDS011;29293;52.190;21.226;2023-07-31T16:10:17;4.80;;;1.90;;
43690;SDS011;29293;52.190;21.226;2023-07-31T16:25:24;4.80;;;1.70;;
43690;SDS011;29293;52.190;21.226;2023-07-31T16:40:31;3.50;;;1.70;;
43690;SDS011;29293;52.190;21.226;2023-07-31T16:55:38;5.60;;;2.10;;
43690;SDS011;29293;52.190;21.226;2023-07-31T17:10:45;7.30;;;1.90;;
43690;SDS011;29293;52.190;21.226;2023-07-31T17:25:51;5.60;;;2.00;;
43690;SDS011;29293;52.190;21.226;2023-07-31T17:40:58;3.80;;;1.80;;
43690;SDS011;29293;52.190;21.226;2023-07-31T17:56:05;4.40;;;2.10;;
43690;SDS011;29293;52.190;21.226;2023-07-31T18:11:12;5.40;;;1.80;;
43690;SDS011;29293;52.190;21.226;2023-07-31T18:26:19;7.50;;;2.40;;
43690;SDS011;29293;52.190;21.226;2023-07-31T18:41:26;7.80;;;2.60;;
43690;SDS011;29293;52.190;21.226;2023-07-31T18:56:33;6.10;;;2.20;;
43690;SDS011;29293;52.190;21.226;2023-07-31T19:11:40;11.20;;;2.70;;
43690;SDS011;29293;52.190;21.226;2023-07-31T19:26:46;7.80;;;2.70;;
43690;SDS011;29293;52.190;21.226;2023-07-31T19:41:56;5.00;;;2.70;;
43690;SDS011;29293;52.190;21.226;2023-07-31T19:57:02;6.50;;;2.60;;
43690;SDS011;29293;52.190;21.226;2023-07-31T20:12:10;9.50;;;3.10;;
43690;SDS011;29293;52.190;21.226;2023-07-31T20:27:18;5.10;;;3.10;;
43690;SDS011;29293;52.190;21.226;2023-07-31T20:42:26;8.30;;;3.10;;
43690;SDS011;29293;52.190;21.226;2023-07-31T20:57:33;11.90;;;3.40;;
43690;SDS011;29293;52.190;21.226;2023-07-31T21:12:40;9.00;;;3.90;;
43690;SDS011;29293;52.190;21.226;2023-07-31T21:27:47;8.00;;;3.40;;
43690;SDS011;29293;52.190;21.226;2023-07-31T21:42:54;7.30;;;3.70;;
43690;SDS011;29293;52.190;21.226;2023-07-31T21:58:01;9.00;;;3.70;;
43690;SDS011;29293;52.190;21.226;2023-07-31T22:13:08;6.70;;;3.80;;
43690;SDS011;29293;52.190;21.226;2023-07-31T22:28:15;7.20;;;4.20;;
43690;SDS011;29293;52.190;21.226;2023-07-31T22:43:22;9.90;;;3.90;;
43690;SDS011;29293;52.190;21.226;2023-07-31T22:58:29;10.60;;;4.40;;
43690;SDS011;29293;52.190;21.226;2023-07-31T23:13:36;9.10;;;4.60;;
43690;SDS011;29293;52.190;21.226;2023-07-31T23:28:43;11.50;;;4.30;;
43690;SDS011;29293;52.190;21.226;2023-07-31T23:43:50;6.90;;;4.10;;
43690;SDS011;29293;52.190;21.226;2023-07-31T23:59:01;8.60;;;4.20;;
